Station: Portable Btsa (Dfes)  

  Atmospheric Gas Attenuation - ITU Rec 676-11   ----------------- dB/100km -----------------
Date Time Temp RH % AH g/m3 Dew Point Wind Direction Speed kph Gust kph Barometer mB Rainfall Since 9am 24GHz 47GHz 76GHz 122GHz 134GHz 241GHz
03/09 02:00 12.8 69 7.73 7.2 7 9 1013.1 0 17.8 24.8 36.8 96.5 88.2 302.7
03/09 01:50 12.9 68 7.66 7.2 7 9 1013.1 0 17.6 24.6 36.5 95.6 87.2 299.1
03/09 01:40 13 68 7.71 7.3 7 7 1013.1 0 17.7 24.7 36.6 96.0 87.7 301.0
03/09 01:30 13.1 68 7.76 7.3 7 9 1013.1 0 17.8 24.7 36.8 96.4 88.3 302.9
03/09 01:20 13.3 67 7.74 7.3 9 9 1013.1 0 17.8 24.7 36.6 96.0 87.8 301.2
03/09 01:10 13.4 66 7.67 7.3 7 9 1013.1 0 17.6 24.5 36.3 95.1 86.8 297.7
03/09 01:00 13.5 66 7.72 7.3 9 11 1013.1 0 17.7 24.6 36.5 95.5 87.3 299.5
03/09 00:50 13.6 66 7.77 7.4 9 11 1013.1 0 17.8 24.6 36.6 95.9 87.8 301.4
03/09 00:40 13.8 65 7.74 7.4 9 11 1013.1 0 17.8 24.5 36.4 95.4 87.2 299.3
03/09 00:30 13.9 65 7.79 7.4 9 9 1013.1 0 17.9 24.6 36.5 95.8 87.7 301.2
03/09 00:20 14 64 7.72 7.4 9 11 1013.1 0 17.7 24.4 36.2 94.9 86.7 297.7
03/09 00:10 14.1 64 7.77 7.5 9 11 1013.1 0 17.8 24.5 36.4 95.3 87.3 299.5
03/09 00:00 14.3 63 7.74 7.5 9 9 1013.1 0 17.7 24.4 36.2 94.8 86.7 297.4
02/09 23:50 14.4 63 7.79 7.6 9 11 1013.1 0 17.8 24.4 36.3 95.2 87.2 299.3
02/09 23:40 14.5 63 7.84 7.6 9 11 1013.1 0 17.9 24.5 36.5 95.6 87.7 301.1
02/09 23:30 14.6 63 7.88 7.7 9 11 1013.1 0 18.0 24.5 36.6 95.9 88.1 302.5
02/09 23:20 14.7 63 7.93 7.8 9 11 1013.1 0 18.1 24.6 36.7 96.2 88.6 304.4
02/09 23:10 14.9 63 8.03 7.9 9 11 1013.1 0 18.3 24.7 37.0 97.0 89.7 308.1
02/09 23:00 15.1 62 8 8 9 13 1013.1 0 18.2 24.6 36.8 96.5 89.1 306.0
02/09 22:50 15.2 62 8.05 8 9 13 1013.1 0 18.4 24.6 37.0 96.9 89.6 307.8
02/09 22:40 15.3 62 8.1 8.1 11 13 1013.1 0 18.5 24.7 37.1 97.3 90.1 309.6
02/09 22:30 15.4 62 8.15 8.2 9 13 1013.1 0 18.6 24.7 37.2 97.7 90.6 311.5
02/09 22:20 15.6 62 8.25 8.3 11 17 1013.1 0 18.8 24.8 37.5 98.4 91.7 315.1
02/09 22:10 15.7 61 8.16 8.3 11 13 1013.1 0 18.6 24.7 37.1 97.4 90.4 310.7
02/09 22:00 15.8 61 8.21 8.4 11 13 1013.1 0 18.7 24.7 37.3 97.8 90.9 312.6
02/09 21:50 16 61 8.31 8.5 11 13 1013.1 0 18.9 24.8 37.6 98.6 92.0 316.2
02/09 21:40 16.1 60 8.22 8.5 11 13 1013.1 0 18.7 24.6 37.2 97.5 90.7 311.8
02/09 21:30 16.2 60 8.27 8.5 11 11 1013.1 0 18.8 24.7 37.3 97.9 91.2 313.6
02/09 21:20 16.3 59 8.19 8.4 11 15 1013.1 0 18.6 24.5 37.0 97.0 90.1 309.7
02/09 21:10 16.4 58 8.09 8.3 11 15 1013.1 0 18.4 24.4 36.6 95.8 88.7 304.9
02/09 21:00 16.6 57 8.05 8.2 13 15 1013.1 0 18.3 24.2 36.3 95.2 88.0 302.4
02/09 20:50 16.8 56 8.01 8 13 15 1013.1 0 18.2 24.1 36.1 94.5 87.3 299.9
02/09 20:40 17 55 7.96 8 11 15 1013.1 0 18.1 24.0 35.8 93.8 86.4 297.0
02/09 20:30 17.2 54 7.91 8 11 13 1013.1 0 18.0 23.9 35.5 93.1 85.6 294.1
02/09 20:20 17.5 54 8.05 8.1 11 15 1013.1 0 18.2 24.0 35.9 94.1 87.0 299.0
02/09 20:10 17.8 53 8.04 8.1 13 17 1013.1 0 18.2 23.9 35.7 93.7 86.5 297.5
02/09 20:00 18 52 7.99 8.1 13 13 1013.1 0 18.1 23.8 35.5 92.9 85.7 294.6
02/09 19:50 18.2 51 7.93 8.1 13 15 1013.1 0 18.0 23.6 35.2 92.1 84.8 291.3
02/09 19:40 18.3 52 8.13 8.5 9 13 1013.1 0 18.4 23.9 35.9 94.0 87.1 299.5
02/09 19:30 18.6 53 8.43 8.9 9 11 1013.1 0 19.0 24.3 36.8 96.6 90.4 311.2
02/09 19:20 18.9 52 8.42 8.9 9 11 1013.1 0 19.0 24.2 36.7 96.1 90.0 309.6
02/09 19:10 19.2 51 8.41 8.8 9 11 1013.1 0 18.9 24.1 36.5 95.7 89.5 308.0
02/09 19:00 19.5 50 8.39 9 7 9 1013.1 0 18.9 24.0 36.3 95.1 88.9 306.0
02/09 18:50 20 48 8.29 8.9 9 11 1013.1 0 18.6 23.7 35.7 93.6 87.2 299.9
02/09 18:40 20.4 47 8.31 8.9 9 11 1013.1 0 18.7 23.6 35.6 93.3 87.0 299.3
02/09 18:30 20.7 47 8.46 9 7 9 1013.1 0 19.0 23.8 36.0 94.4 88.4 304.5
02/09 18:20 21.1 46 8.47 9.1 9 13 1013.1 0 19.0 23.7 35.9 94.0 88.1 303.4
02/09 18:10 21.5 44 8.3 8.8 11 13 1013.1 0 18.6 23.3 35.1 92.0 85.7 294.8
02/09 18:00 22.1 43 8.39 8.9 15 19 1013.1 0 18.8 23.3 35.1 92.1 86.1 296.3
02/09 17:50 22.8 41 8.33 8.9 17 19 1013.1 0 18.6 23.0 34.6 90.8 84.6 291.4
02/09 17:40 23.8 39 8.39 9.1 13 19 1013.1 0 18.7 22.9 34.4 90.2 84.3 290.2
02/09 17:30 24.3 31 6.86 6.3 7 9 1013.1 0 15.5 20.7 29.1 75.9 66.8 229.0
02/09 17:20 24.5 31 6.94 6.5 9 11 1013.1 0 15.6 20.7 29.3 76.5 67.5 231.5
02/09 17:10 24.7 31 7.02 6.4 9 11 1013.1 0 15.8 20.8 29.5 77.0 68.2 233.9
02/09 17:00 24.8 30 6.83 6.3 9 11 1013.1 0 15.4 20.5 28.8 75.2 66.1 226.5
02/09 16:50 24.9 30 6.87 6.2 9 13 1013.1 0 15.5 20.6 28.9 75.5 66.4 227.7
02/09 16:40 24.9 29 6.64 6 13 17 1013.1 0 15.0 20.3 28.2 73.5 64.0 219.1
02/09 16:30 25.1 29 6.71 5.9 11 17 1013.1 0 15.1 20.3 28.3 73.9 64.6 221.2
02/09 16:20 25.3 30 7.02 6.5 9 13 1013.1 0 15.8 20.7 29.2 76.4 67.7 232.3
02/09 16:10 25.1 29 6.71 6.2 11 15 1013.1 0 15.1 20.3 28.3 73.9 64.6 221.2
02/09 16:00 25.4 28 6.59 5.9 11 15 1013.1 0 14.9 20.1 27.8 72.6 63.1 216.0
02/09 15:50 25 30 6.91 6.3 11 17 1013.1 0 15.6 20.6 29.0 75.7 66.8 229.0
02/09 15:40 25.1 31 7.18 6.9 13 17 1013.1 0 16.1 20.9 29.8 78.0 69.6 238.9
02/09 15:30 25.2 31 7.22 7.1 9 11 1013.1 0 16.2 21.0 29.9 78.3 69.9 240.1
02/09 15:20 24.9 32 7.32 7.2 11 15 1013.1 0 16.4 21.2 30.4 79.4 71.3 244.8
02/09 15:10 25.1 32 7.41 7.2 9 15 1013.1 0 16.6 21.2 30.6 80.0 72.1 247.6
02/09 15:00 25 31 7.14 7.1 11 13 1013.1 0 16.0 20.9 29.7 77.7 69.2 237.6
02/09 14:50 24.9 33 7.55 7.5 13 17 1013.1 0 16.9 21.5 31.1 81.5 73.8 253.6
02/09 14:40 25.1 33 7.64 7.7 7 13 1013.1 0 17.1 21.5 31.4 82.1 74.6 256.4
02/09 14:30 24.9 33 7.55 7.5 13 19 1013.1 0 16.9 21.5 31.1 81.5 73.8 253.6
02/09 14:20 24.7 34 7.7 8.1 11 15 1013.1 0 17.2 21.7 31.7 83.0 75.6 260.0
02/09 14:10 24.4 35 7.79 8 11 15 1013.1 0 17.4 21.9 32.1 84.1 76.9 264.4
02/09 13:50 24.4 35 7.79 8.2 9 13 1013.1 0 17.4 21.9 32.1 84.1 76.9 264.4
02/09 13:40 23.8 36 7.74 8.1 11 15 1013.1 0 17.3 22.0 32.2 84.3 76.9 264.4
02/09 13:30 23.8 38 8.17 8.8 11 13 1013.1 0 18.2 22.6 33.7 88.2 81.8 281.4
02/09 13:20 23.8 39 8.39 9.3 9 13 1013.1 0 18.7 22.9 34.4 90.2 84.3 290.2
02/09 13:10 23.5 39 8.25 8.9 11 17 1013.1 0 18.4 22.8 34.1 89.3 83.0 285.7
02/09 13:00 23.3 41 8.57 9.3 13 15 1013.1 0 19.1 23.3 35.3 92.5 86.9 299.3
02/09 12:50 23.2 40 8.32 9.1 13 17 1013.1 0 18.6 22.9 34.4 90.2 84.1 289.5
02/09 12:40 23.1 42 8.68 9.6 11 15 1013.1 0 19.3 23.5 35.7 93.7 88.4 304.5
02/09 12:30 23.1 40 8.27 9 11 17 1013.1 0 18.5 22.9 34.3 89.9 83.6 287.9
02/09 12:20 22.9 41 8.38 9.1 13 15 1013.1 0 18.7 23.1 34.8 91.1 85.1 293.0
02/09 12:10 22.6 43 8.64 9.6 13 15 1013.1 0 19.3 23.5 35.8 93.9 88.5 304.8
02/09 11:50 22.2 44 8.64 9.5 13 17 1013.1 0 19.3 23.6 36.0 94.4 88.9 306.3
02/09 11:40 22.2 44 8.64 9.5 13 17 1013.1 0 19.3 23.6 36.0 94.4 88.9 306.3
02/09 11:30 22.1 44 8.59 9.5 11 15 1013.1 0 19.2 23.6 35.9 94.0 88.4 304.6
02/09 11:20 21.7 46 8.77 9.8 15 17 1013.1 0 19.6 24.0 36.7 96.2 91.0 313.6
02/09 11:10 21.4 48 9 9.9 13 17 1013.1 0 20.1 24.4 37.7 98.8 94.1 324.5
02/09 10:50 21 51 9.34 10.5 13 17 1013.1 0 20.8 25.0 39.1 102.7 98.7 340.6
02/09 10:40 21.1 50 9.21 10.5 11 15 1013.1 0 20.5 24.8 38.6 101.3 97.0 334.6
02/09 10:30 20.5 52 9.25 10.4 13 17 1013.1 0 20.6 25.0 39.0 102.4 98.3 338.9
02/09 10:20 20.4 53 9.38 10.5 13 17 1013.1 0 20.9 25.2 39.5 103.9 100.0 344.9
02/09 10:10 20.3 53 9.32 10.6 13 15 1013.1 0 20.8 25.2 39.4 103.4 99.4 342.8
02/09 10:00 20 55 9.5 10.8 13 17 1013.1 0 21.2 25.5 40.2 105.6 102.0 351.9
02/09 09:50 19.7 56 9.51 10.7 15 19 1013.1 0 21.2 25.6 40.4 106.1 102.5 353.7
02/09 09:40 19.6 56 9.45 10.7 17 20 1013.1 0 21.1 25.6 40.2 105.6 101.9 351.5
02/09 09:30 19.5 56 9.4 10.7 17 20 1013.1 0 21.0 25.5 40.1 105.3 101.4 349.7
02/09 09:20 19.2 59 9.73 11 17 19 1013.1 0 21.7 26.1 41.5 109.1 106.0 365.7
02/09 09:10 19 59 9.61 10.9 15 19 1013.1 0 21.5 26.0 41.1 108.1 104.7 361.3
02/09 09:00 18.8 60 9.66 11 13 15 1013.1 0 21.6 26.1 41.4 108.9 105.6 364.4

Last Refresh: 03-Sep-2026 03:53:57

Bureau of Meteorology